createdAt,value
2022-12-25T00:02:00.675Z,7.44
2022-12-25T00:07:00.643Z,7.51
2022-12-25T00:12:00.682Z,8.24
2022-12-25T00:17:00.661Z,8.14
2022-12-25T00:22:00.659Z,8.31
2022-12-25T00:27:00.687Z,8.16
2022-12-25T00:32:00.740Z,8.01
2022-12-25T00:37:00.656Z,9.54
2022-12-25T00:42:00.659Z,10.01
2022-12-25T00:47:00.736Z,9.69
2022-12-25T00:52:00.674Z,9.88
2022-12-25T00:57:00.667Z,9.4
2022-12-25T01:02:00.790Z,9.25
2022-12-25T01:07:00.706Z,9.38
2022-12-25T01:12:00.691Z,9.07
2022-12-25T01:17:00.677Z,8.93
2022-12-25T01:22:00.702Z,8.71
2022-12-25T01:27:00.711Z,8.02
2022-12-25T01:32:00.738Z,8.57
2022-12-25T01:37:00.673Z,7.82
2022-12-25T01:42:00.691Z,8.18
2022-12-25T01:47:00.693Z,7.47
2022-12-25T01:52:00.725Z,7.61
2022-12-25T01:57:00.686Z,7.72
2022-12-25T02:02:00.762Z,6.81
2022-12-25T02:07:00.697Z,6.84
2022-12-25T02:12:00.735Z,6.92
2022-12-25T02:17:00.754Z,7.51
2022-12-25T02:22:00.701Z,6.61
2022-12-25T02:27:00.722Z,6.9
2022-12-25T02:32:00.875Z,6.51
2022-12-25T02:37:00.711Z,6.62
2022-12-25T02:42:00.739Z,6.96
2022-12-25T02:47:00.744Z,6.47
2022-12-25T02:52:00.716Z,6.97
2022-12-25T02:57:00.753Z,7.29
2022-12-25T03:02:00.896Z,7.13
2022-12-25T03:07:00.719Z,6.72
2022-12-25T03:12:00.755Z,7.45
2022-12-25T03:17:00.820Z,7.32
2022-12-25T03:22:00.724Z,7.42
2022-12-25T03:27:00.754Z,7.09
2022-12-25T03:32:00.759Z,6.99
2022-12-25T03:37:00.767Z,7.14
2022-12-25T03:42:00.794Z,7.16
2022-12-25T03:47:00.768Z,7.43
2022-12-25T03:52:00.781Z,7.52
2022-12-25T03:57:00.748Z,7.37
2022-12-25T04:02:00.875Z,7.3
2022-12-25T04:07:00.745Z,7.18
2022-12-25T04:12:02.944Z,7.57
2022-12-25T04:17:00.784Z,7.8
2022-12-25T04:22:00.748Z,8.19
2022-12-25T04:27:00.795Z,8.46
2022-12-25T04:32:00.759Z,8.72
2022-12-25T04:37:00.771Z,8.59
2022-12-25T04:42:00.768Z,8.75
2022-12-25T04:47:03.562Z,8.93
2022-12-25T04:52:00.754Z,9.11
2022-12-25T04:57:00.773Z,9.35
2022-12-25T05:02:00.918Z,9.61
2022-12-25T05:07:00.766Z,9.83
2022-12-25T05:12:00.792Z,10.06
2022-12-25T05:17:00.820Z,10.43
2022-12-25T05:22:00.806Z,10.34
2022-12-25T05:27:00.797Z,9.9
2022-12-25T05:32:00.790Z,10.48
2022-12-25T05:37:00.828Z,11.18
2022-12-25T05:42:00.802Z,10.89
2022-12-25T05:47:00.841Z,10.62
2022-12-25T05:52:00.827Z,10.8
2022-12-25T05:57:00.819Z,10.78
2022-12-25T06:02:00.841Z,10.44
2022-12-25T06:07:00.821Z,10.31
2022-12-25T06:12:00.799Z,9.1
2022-12-25T06:17:00.817Z,9.24
2022-12-25T06:22:00.832Z,9.29
2022-12-25T06:27:00.793Z,11.95
2022-12-25T06:32:00.829Z,11.72
2022-12-25T06:37:00.809Z,11.56
2022-12-25T06:42:00.855Z,11.65
2022-12-25T06:47:00.840Z,11.59
2022-12-25T06:52:00.838Z,11.64
2022-12-25T06:57:00.807Z,11.5
2022-12-25T07:02:00.949Z,11.35
2022-12-25T07:07:04.542Z,11.27
2022-12-25T07:12:00.824Z,11.8
2022-12-25T07:17:00.904Z,11.57
2022-12-25T07:22:00.855Z,11.76
2022-12-25T07:27:00.843Z,11.51
2022-12-25T07:32:00.860Z,11.18
2022-12-25T07:37:00.862Z,10.72
2022-12-25T07:42:00.853Z,9.54
2022-12-25T07:47:00.861Z,11.84
2022-12-25T07:52:00.877Z,10.55
2022-12-25T07:57:00.827Z,10.47
2022-12-25T08:02:01.087Z,10.45
2022-12-25T08:07:00.841Z,11.06
2022-12-25T08:12:00.843Z,12.07
2022-12-25T08:17:00.882Z,12.39
2022-12-25T08:22:00.873Z,13.1
2022-12-25T08:27:00.841Z,13.19
2022-12-25T08:32:00.893Z,14.77
2022-12-25T08:37:00.847Z,14.91
2022-12-25T08:42:00.860Z,15.11
2022-12-25T08:47:00.839Z,14.28
2022-12-25T08:52:00.889Z,14.97
2022-12-25T08:57:02.748Z,14.91
2022-12-25T09:02:00.993Z,14.98
2022-12-25T09:07:00.894Z,14.4
2022-12-25T09:12:00.895Z,14.9
2022-12-25T09:17:00.888Z,15.42
2022-12-25T09:22:00.866Z,15.62
2022-12-25T09:27:00.873Z,15.36
2022-12-25T09:32:00.902Z,15.57
2022-12-25T09:37:00.872Z,15.23
2022-12-25T09:42:00.867Z,15.15
2022-12-25T09:47:00.940Z,14.39
2022-12-25T09:52:00.913Z,14.04
2022-12-25T09:57:00.876Z,13.43
2022-12-25T10:02:00.991Z,13.65
2022-12-25T10:07:00.893Z,13.84
2022-12-25T10:12:00.893Z,15.59
2022-12-25T10:17:00.895Z,14.97
2022-12-25T10:22:00.908Z,17.12
2022-12-25T10:27:00.948Z,20.78
2022-12-25T10:32:00.924Z,19.86
2022-12-25T10:37:00.925Z,19.9
2022-12-25T10:42:00.917Z,14.22
2022-12-25T10:47:00.942Z,14.09
2022-12-25T10:52:00.931Z,15.57
2022-12-25T10:57:00.941Z,12.61
2022-12-25T11:02:00.984Z,10.95
2022-12-25T11:07:00.941Z,12.53
2022-12-25T11:12:00.937Z,12.35
2022-12-25T11:17:00.918Z,14.19
2022-12-25T11:22:00.966Z,12.26
2022-12-25T11:27:00.925Z,15.64
2022-12-25T11:32:00.948Z,20.29
2022-12-25T11:37:00.915Z,17.22
2022-12-25T11:42:00.976Z,13.52
2022-12-25T11:47:13.619Z,13.37
2022-12-25T11:52:00.913Z,15.79
2022-12-25T11:57:00.955Z,15.7
2022-12-25T12:02:01.041Z,16.48
2022-12-25T12:07:00.965Z,12.92
2022-12-25T12:12:00.944Z,10.7
2022-12-25T12:17:00.936Z,24.92
2022-12-25T12:22:00.968Z,24.51
2022-12-25T12:27:00.975Z,9.42
2022-12-25T12:32:01.053Z,9.44
2022-12-25T12:37:00.986Z,8.91
2022-12-25T12:42:00.992Z,11.12
2022-12-25T12:47:00.989Z,12.28
2022-12-25T12:52:00.983Z,22.29
2022-12-25T12:57:00.996Z,25.27
2022-12-25T13:02:01.090Z,7.99
2022-12-25T13:07:00.988Z,5.68
2022-12-25T13:12:00.989Z,8.19
2022-12-25T13:17:01.003Z,7.1
2022-12-25T13:22:01.036Z,7.98
2022-12-25T13:27:01.000Z,8.55
2022-12-25T13:32:01.009Z,12.37
2022-12-25T13:37:00.980Z,20.11
2022-12-25T13:42:00.981Z,13.28
2022-12-25T13:47:01.001Z,11.21
2022-12-25T13:52:01.004Z,9.05
2022-12-25T13:57:00.978Z,10.33
2022-12-25T14:02:01.136Z,11.17
2022-12-25T14:07:00.984Z,15.26
2022-12-25T14:12:00.990Z,15.26
2022-12-25T14:17:01.032Z,7.89
2022-12-25T14:22:00.986Z,9.82
2022-12-25T14:27:01.028Z,14.98
2022-12-25T14:32:01.060Z,12.91
2022-12-25T14:37:00.992Z,11.73
2022-12-25T14:42:01.007Z,9.36
2022-12-25T14:47:01.027Z,9.06
2022-12-25T14:52:00.989Z,10.46
2022-12-25T14:57:01.024Z,9.69
2022-12-25T15:02:01.172Z,10.31
2022-12-25T15:07:01.029Z,10.45
2022-12-25T15:12:01.058Z,11.8
2022-12-25T15:17:01.036Z,14.88
2022-12-25T15:22:01.013Z,16.32
2022-12-25T15:27:01.077Z,24.38
2022-12-25T15:32:01.017Z,32.04
2022-12-25T15:37:01.080Z,21.4
2022-12-25T15:42:01.024Z,19.83
2022-12-25T15:47:01.055Z,18.38
2022-12-25T15:52:01.068Z,17.94
2022-12-25T15:57:01.028Z,17.48
2022-12-25T16:02:01.135Z,19.89
2022-12-25T16:07:01.060Z,31.78
2022-12-25T16:12:01.055Z,63.62
2022-12-25T16:17:01.064Z,39.29
2022-12-25T16:22:01.056Z,29.89
2022-12-25T16:27:01.037Z,24.35
2022-12-25T16:32:01.023Z,32.6
2022-12-25T16:37:01.071Z,47.35
2022-12-25T16:42:01.041Z,61.08
2022-12-25T16:47:01.079Z,66.8
2022-12-25T16:52:01.064Z,47.97
2022-12-25T16:57:01.041Z,53.36
2022-12-25T17:02:01.092Z,96.46
2022-12-25T17:07:01.084Z,96.68
2022-12-25T17:12:01.049Z,98.85
2022-12-25T17:17:01.085Z,91.74
2022-12-25T17:22:01.094Z,102.2
2022-12-25T17:27:01.055Z,103.33
2022-12-25T17:32:01.107Z,115.62
2022-12-25T17:37:01.088Z,112.66
2022-12-25T17:42:01.077Z,99.03
2022-12-25T17:47:01.147Z,99.65
2022-12-25T17:52:01.060Z,105.22
2022-12-25T17:57:01.093Z,117.2
2022-12-25T18:02:01.123Z,109.2
2022-12-25T18:07:01.073Z,107.47
2022-12-25T18:12:01.109Z,99.25
2022-12-25T18:17:01.104Z,55.49
2022-12-25T18:22:01.083Z,76.62
2022-12-25T18:27:01.109Z,80.15
2022-12-25T18:32:01.142Z,67.56
2022-12-25T18:37:01.100Z,125.52
2022-12-25T18:42:01.125Z,82.09
2022-12-25T18:47:01.105Z,67.18
2022-12-25T18:52:47.224Z,65.83
2022-12-25T18:57:06.959Z,92.56
2022-12-25T19:02:01.194Z,78.15
2022-12-25T19:07:01.108Z,74.97
2022-12-25T19:12:01.089Z,50.77
2022-12-25T19:17:01.147Z,35.6
2022-12-25T19:22:01.103Z,45.09
2022-12-25T19:27:01.105Z,59.54
2022-12-25T19:32:01.218Z,75.48
2022-12-25T19:37:01.100Z,62.85
2022-12-25T19:42:01.096Z,55.54
2022-12-25T19:47:01.099Z,54.91
2022-12-25T19:52:01.103Z,55.11
2022-12-25T19:57:01.138Z,54.44
2022-12-25T20:02:01.262Z,53.27
2022-12-25T20:07:01.098Z,59.22
2022-12-25T20:12:01.166Z,65.26
2022-12-25T20:17:01.218Z,42.45
2022-12-25T20:22:01.146Z,35.03
2022-12-25T20:27:01.156Z,29.32
2022-12-25T20:32:01.230Z,31
2022-12-25T20:37:01.149Z,18.07
2022-12-25T20:42:01.144Z,12.97
2022-12-25T20:47:01.148Z,11.39
2022-12-25T20:52:05.036Z,9.57
2022-12-25T20:57:01.167Z,10.06
2022-12-25T21:02:01.376Z,13.21
2022-12-25T21:07:01.127Z,13.35
2022-12-25T21:12:01.158Z,13.69
2022-12-25T21:17:01.225Z,13.3
2022-12-25T21:22:01.181Z,14.07
2022-12-25T21:27:01.137Z,14.23
2022-12-25T21:32:01.179Z,15.11
2022-12-25T21:37:01.167Z,17.22
2022-12-25T21:42:01.144Z,18.54
2022-12-25T21:47:01.146Z,19.24
2022-12-25T21:52:01.143Z,16.61
2022-12-25T21:57:01.154Z,14.89
2022-12-25T22:02:01.284Z,14.39
2022-12-25T22:07:01.181Z,12.37
2022-12-25T22:12:01.168Z,10.48
2022-12-25T22:17:01.187Z,10.47
2022-12-25T22:22:01.160Z,10.26
2022-12-25T22:27:01.197Z,9.21
2022-12-25T22:32:01.159Z,8.72
2022-12-25T22:37:01.160Z,8.54
2022-12-25T22:42:01.192Z,6.69
2022-12-25T22:47:01.167Z,5.52
2022-12-25T22:52:01.154Z,3.51
2022-12-25T22:57:01.171Z,3.2
2022-12-25T23:02:01.280Z,2.8
2022-12-25T23:07:01.181Z,3.1
2022-12-25T23:12:01.205Z,2.82
2022-12-25T23:17:01.179Z,3.62
2022-12-25T23:22:01.176Z,3.06
2022-12-25T23:27:01.176Z,3.01
2022-12-25T23:32:01.178Z,2.51
2022-12-25T23:37:01.187Z,2.8
2022-12-25T23:42:01.179Z,2.29
2022-12-25T23:47:01.220Z,2.21
2022-12-25T23:52:01.222Z,2.21
2022-12-25T23:57:01.214Z,2.22
